Time;durP1;ratioP1;P1;durP2;ratioP2;P2;SDS_P1;SDS_P2;PMS_P1;PMS_P2;Temp;Humidity;BMP_temperature;BMP_pressure;BME280_temperature;BME280_humidity;BME280_pressure;Samples;Min_cycle;Max_cycle;Signal;HPM_P1;HPM_P2
2023/01/19 00:01:57;;;;;;;3.50;2.15;;;;;;;;;;5051542;28;20028;-74
2023/01/19 00:04:23;;;;;;;2.85;1.77;;;;;;;;;;5050312;28;20412;-73
2023/01/19 00:06:49;;;;;;;3.42;2.30;;;;;;;;;;5063317;28;20384;-73
2023/01/19 00:09:18;;;;;;;3.60;2.17;;;;;;;;;;5056067;28;20025;-73
2023/01/19 00:11:47;;;;;;;5.82;2.03;;;;;;;;;;5053253;28;20041;-74
2023/01/19 00:14:13;;;;;;;3.10;1.92;;;;;;;;;;5053260;28;20033;-73
2023/01/19 00:16:39;;;;;;;9.98;2.42;;;;;;;;;;5066133;28;20041;-74
2023/01/19 00:19:07;;;;;;;3.58;2.17;;;;;;;;;;5057712;28;20028;-73
2023/01/19 00:21:33;;;;;;;4.53;2.17;;;;;;;;;;5059799;28;20119;-73
2023/01/19 00:23:59;;;;;;;2.47;1.80;;;;;;;;;;5053320;28;20078;-73
2023/01/19 00:26:25;;;;;;;3.05;1.75;;;;;;;;;;5043183;28;20056;-74
2023/01/19 00:28:51;;;;;;;4.10;2.05;;;;;;;;;;5048868;28;20533;-73
2023/01/19 00:31:21;;;;;;;3.55;1.75;;;;;;;;;;5050419;28;20044;-73
2023/01/19 00:33:48;;;;;;;5.43;2.67;;;;;;;;;;5057220;28;20500;-72
2023/01/19 00:36:14;;;;;;;4.25;2.25;;;;;;;;;;5048105;28;20500;-72
2023/01/19 00:38:40;;;;;;;4.78;2.08;;;;;;;;;;5060834;28;20038;-73
2023/01/19 00:41:06;;;;;;;5.43;1.95;;;;;;;;;;5064134;28;20028;-72
2023/01/19 00:43:33;;;;;;;4.13;2.28;;;;;;;;;;5054639;28;20031;-71
2023/01/19 00:45:59;;;;;;;3.15;1.92;;;;;;;;;;5058910;28;20021;-72
2023/01/19 00:48:25;;;;;;;4.32;1.90;;;;;;;;;;5059345;28;20392;-72
2023/01/19 00:50:51;;;;;;;3.75;2.20;;;;;;;;;;5048364;28;20513;-72
2023/01/19 00:53:16;;;;;;;3.58;2.03;;;;;;;;;;5060440;28;20028;-72
2023/01/19 00:55:42;;;;;;;4.13;2.28;;;;;;;;;;5061367;28;20047;-72
2023/01/19 00:58:08;;;;;;;2.83;1.60;;;;;;;;;;5049723;28;20031;-73
2023/01/19 01:00:34;;;;;;;3.38;2.08;;;;;;;;;;5057839;28;20070;-72
2023/01/19 01:03:00;;;;;;;2.00;1.55;;;;;;;;;;5063225;28;20028;-75
2023/01/19 01:05:26;;;;;;;2.58;1.55;;;;;;;;;;5056752;28;20459;-73
2023/01/19 01:07:52;;;;;;;2.60;1.90;;;;;;;;;;5055372;28;20025;-73
2023/01/19 01:10:22;;;;;;;3.20;1.67;;;;;;;;;;5059595;28;20024;-72
2023/01/19 01:12:48;;;;;;;3.60;1.92;;;;;;;;;;5057245;28;20068;-73
2023/01/19 01:15:15;;;;;;;3.65;1.80;;;;;;;;;;5055517;28;20867;-73
2023/01/19 01:17:45;;;;;;;3.63;2.45;;;;;;;;;;5049791;28;20238;-73
2023/01/19 01:20:15;;;;;;;3.25;1.58;;;;;;;;;;5053517;28;20392;-73
2023/01/19 01:22:44;;;;;;;2.72;2.30;;;;;;;;;;5046292;28;20087;-74
2023/01/19 01:25:10;;;;;;;2.92;1.65;;;;;;;;;;5048473;28;20052;-74
2023/01/19 01:27:36;;;;;;;3.42;1.85;;;;;;;;;;5050434;28;20025;-74
2023/01/19 01:30:02;;;;;;;1.88;1.40;;;;;;;;;;5052653;28;20028;-72
2023/01/19 01:32:29;;;;;;;2.88;1.55;;;;;;;;;;5056571;28;20072;-72
2023/01/19 01:34:55;;;;;;;3.13;1.80;;;;;;;;;;5051146;28;20481;-73
2023/01/19 01:37:21;;;;;;;2.65;1.73;;;;;;;;;;5051824;28;20036;-73
2023/01/19 01:39:47;;;;;;;1.98;1.40;;;;;;;;;;5046832;28;20037;-74
2023/01/19 01:42:17;;;;;;;2.78;1.60;;;;;;;;;;5059824;28;20082;-73
2023/01/19 01:44:51;;;;;;;2.90;1.88;;;;;;;;;;5059125;28;20021;-72
2023/01/19 01:47:32;;;;;;;3.38;1.67;;;;;;;;;;5050764;28;20031;-73
2023/01/19 01:50:02;;;;;;;2.53;1.55;;;;;;;;;;5054222;28;20361;-73
2023/01/19 01:52:29;;;;;;;2.47;1.65;;;;;;;;;;5046777;28;20476;-73
2023/01/19 01:54:56;;;;;;;2.85;1.60;;;;;;;;;;5053283;28;20110;-73
2023/01/19 01:57:21;;;;;;;2.95;1.90;;;;;;;;;;5058645;28;20055;-74
2023/01/19 01:59:48;;;;;;;2.97;1.60;;;;;;;;;;5050798;28;20476;-73
2023/01/19 02:05:06;;;;;;;1.85;1.40;;;;;;;;;;5049950;28;20036;-73
2023/01/19 02:13:16;;;;;;;3.45;1.92;;;;;;;;;;5049159;28;20071;-74
2023/01/19 02:15:41;;;;;;;3.53;1.67;;;;;;;;;;5053219;28;20044;-74
2023/01/19 02:18:07;;;;;;;1.58;1.42;;;;;;;;;;5061332;28;20393;-73
2023/01/19 02:20:36;;;;;;;2.30;1.60;;;;;;;;;;5055858;28;20033;-73
2023/01/19 02:23:04;;;;;;;2.22;1.45;;;;;;;;;;5059363;28;20029;-73
2023/01/19 02:25:30;;;;;;;1.90;1.60;;;;;;;;;;5056217;28;20021;-73
2023/01/19 02:27:56;;;;;;;3.05;1.98;;;;;;;;;;5053489;28;20120;-73
2023/01/19 02:30:23;;;;;;;4.93;1.63;;;;;;;;;;5050095;28;20035;-72
2023/01/19 02:32:49;;;;;;;4.47;2.03;;;;;;;;;;5062689;28;20039;-72
2023/01/19 02:35:15;;;;;;;3.38;2.00;;;;;;;;;;5050026;28;20028;-73
2023/01/19 02:37:41;;;;;;;3.03;1.45;;;;;;;;;;5049164;28;20492;-74
2023/01/19 02:40:10;;;;;;;4.32;1.58;;;;;;;;;;5048139;28;20029;-72
2023/01/19 02:42:39;;;;;;;1.98;1.40;;;;;;;;;;5055694;28;20110;-73
2023/01/19 02:45:05;;;;;;;1.90;1.15;;;;;;;;;;5049214;28;20518;-72
2023/01/19 02:47:45;;;;;;;2.55;1.40;;;;;;;;;;5056169;28;20428;-73
2023/01/19 02:50:30;;;;;;;2.22;1.50;;;;;;;;;;5055864;28;20036;-73
2023/01/19 02:53:00;;;;;;;2.63;1.40;;;;;;;;;;5044103;28;20051;-73
2023/01/19 02:55:27;;;;;;;2.13;1.58;;;;;;;;;;5049850;28;20388;-72
2023/01/19 02:58:11;;;;;;;2.08;1.20;;;;;;;;;;5052241;28;20035;-72
2023/01/19 03:00:48;;;;;;;2.10;1.30;;;;;;;;;;5049495;28;20159;-73
2023/01/19 03:03:23;;;;;;;3.10;1.67;;;;;;;;;;5052003;28;20390;-72
2023/01/19 03:05:55;;;;;;;3.08;1.60;;;;;;;;;;5047487;28;20086;-73
2023/01/19 03:08:30;;;;;;;2.10;1.35;;;;;;;;;;5053905;28;20771;-73
2023/01/19 03:11:01;;;;;;;2.92;1.65;;;;;;;;;;5049482;28;20760;-74
2023/01/19 03:13:36;;;;;;;1.58;1.23;;;;;;;;;;5047486;28;20568;-73
2023/01/19 03:16:02;;;;;;;2.03;1.35;;;;;;;;;;5053904;28;20021;-74
2023/01/19 03:18:29;;;;;;;1.67;1.20;;;;;;;;;;5047575;28;20061;-73
2023/01/19 03:20:57;;;;;;;1.70;1.35;;;;;;;;;;5047628;28;20024;-72
2023/01/19 03:23:25;;;;;;;2.53;1.38;;;;;;;;;;5045374;28;20029;-72
2023/01/19 03:25:53;;;;;;;2.13;1.40;;;;;;;;;;5046473;28;20029;-73
2023/01/19 03:28:20;;;;;;;1.77;1.30;;;;;;;;;;5055018;28;20021;-73
2023/01/19 03:30:50;;;;;;;1.95;1.45;;;;;;;;;;5062739;28;20114;-73
2023/01/19 03:33:20;;;;;;;3.03;1.52;;;;;;;;;;5066340;28;20116;-73
2023/01/19 03:35:48;;;;;;;3.13;1.83;;;;;;;;;;5060524;28;20042;-73
2023/01/19 03:38:16;;;;;;;2.13;1.20;;;;;;;;;;5050879;28;20035;-72
2023/01/19 03:40:42;;;;;;;1.80;1.30;;;;;;;;;;5055585;28;20175;-72
2023/01/19 03:43:09;;;;;;;1.83;1.48;;;;;;;;;;5056015;28;21799;-72
2023/01/19 03:45:38;;;;;;;2.13;1.30;;;;;;;;;;5049544;28;20497;-74
2023/01/19 03:48:04;;;;;;;2.22;1.38;;;;;;;;;;5053156;28;20376;-73
2023/01/19 03:50:30;;;;;;;2.45;1.52;;;;;;;;;;5069755;28;20028;-73
2023/01/19 03:53:07;;;;;;;2.78;1.45;;;;;;;;;;5048162;28;20028;-73
2023/01/19 03:55:33;;;;;;;2.97;1.10;;;;;;;;;;5049157;28;20029;-74
2023/01/19 03:57:59;;;;;;;1.65;1.08;;;;;;;;;;5052725;28;20036;-73
2023/01/19 04:00:25;;;;;;;2.28;1.33;;;;;;;;;;5052079;28;20079;-73
2023/01/19 04:02:51;;;;;;;1.77;1.58;;;;;;;;;;5060647;28;20106;-73
2023/01/19 04:05:18;;;;;;;1.77;1.23;;;;;;;;;;5050479;28;20021;-72
2023/01/19 04:07:44;;;;;;;1.92;1.60;;;;;;;;;;5061642;28;20074;-73
2023/01/19 04:10:11;;;;;;;2.78;1.48;;;;;;;;;;5054283;28;20028;-74
2023/01/19 04:12:38;;;;;;;1.38;1.17;;;;;;;;;;5050526;28;20065;-73
2023/01/19 04:15:05;;;;;;;2.53;1.58;;;;;;;;;;5055475;28;20076;-74
2023/01/19 04:17:31;;;;;;;1.15;1.00;;;;;;;;;;5058030;28;20120;-72
2023/01/19 04:19:57;;;;;;;2.15;1.33;;;;;;;;;;5050393;28;20055;-73
2023/01/19 04:22:23;;;;;;;2.65;1.48;;;;;;;;;;5058788;28;20036;-73
2023/01/19 04:24:49;;;;;;;1.92;1.30;;;;;;;;;;5048107;28;20032;-73
2023/01/19 04:27:15;;;;;;;1.80;1.23;;;;;;;;;;5047440;28;20025;-73
2023/01/19 04:29:41;;;;;;;2.53;1.35;;;;;;;;;;5048250;28;20024;-74
2023/01/19 04:32:07;;;;;;;2.05;1.27;;;;;;;;;;5052285;28;20025;-74
2023/01/19 04:34:33;;;;;;;1.63;1.42;;;;;;;;;;5059451;28;20392;-74
2023/01/19 04:36:59;;;;;;;2.05;1.30;;;;;;;;;;5055383;28;20230;-73
2023/01/19 04:39:26;;;;;;;2.00;1.52;;;;;;;;;;5059277;28;21930;-73
2023/01/19 04:41:52;;;;;;;1.75;1.30;;;;;;;;;;5051993;28;20021;-73
2023/01/19 04:44:18;;;;;;;1.52;1.15;;;;;;;;;;5048286;28;20024;-72
2023/01/19 04:46:44;;;;;;;3.25;1.30;;;;;;;;;;5048976;28;20238;-72
2023/01/19 04:49:10;;;;;;;1.73;1.23;;;;;;;;;;5061741;28;20027;-72
2023/01/19 04:51:36;;;;;;;2.38;1.50;;;;;;;;;;5048819;28;20044;-73
2023/01/19 04:54:02;;;;;;;3.47;1.70;;;;;;;;;;5048664;28;20507;-72
2023/01/19 04:56:28;;;;;;;2.67;1.48;;;;;;;;;;5046889;28;20254;-73
2023/01/19 04:58:54;;;;;;;1.60;1.20;;;;;;;;;;5050335;28;20036;-73
2023/01/19 05:01:20;;;;;;;3.13;1.70;;;;;;;;;;5051223;28;20032;-73
2023/01/19 05:03:46;;;;;;;1.73;1.45;;;;;;;;;;5058115;28;20032;-72
2023/01/19 05:06:12;;;;;;;3.17;1.60;;;;;;;;;;5055425;28;20484;-72
2023/01/19 05:08:38;;;;;;;2.45;1.50;;;;;;;;;;5051814;28;20055;-73
2023/01/19 05:11:04;;;;;;;2.65;1.10;;;;;;;;;;5048434;28;20055;-73
2023/01/19 05:13:30;;;;;;;1.40;1.17;;;;;;;;;;5050350;28;20039;-73
2023/01/19 05:15:56;;;;;;;1.95;1.25;;;;;;;;;;5049951;28;20033;-73
2023/01/19 05:18:22;;;;;;;1.60;1.27;;;;;;;;;;5063302;28;20036;-73
2023/01/19 05:20:48;;;;;;;2.00;1.30;;;;;;;;;;5053632;28;20044;-72
2023/01/19 05:23:14;;;;;;;2.63;1.90;;;;;;;;;;5050072;28;20203;-73
2023/01/19 05:25:41;;;;;;;1.20;1.10;;;;;;;;;;5050823;28;20028;-74
2023/01/19 05:28:07;;;;;;;2.58;1.23;;;;;;;;;;5048532;28;20151;-73
2023/01/19 05:30:33;;;;;;;1.80;1.40;;;;;;;;;;5060867;28;20047;-73
2023/01/19 05:32:59;;;;;;;2.08;1.30;;;;;;;;;;5051073;28;20024;-73
2023/01/19 05:35:25;;;;;;;1.90;1.20;;;;;;;;;;5047903;28;20029;-73
2023/01/19 05:37:51;;;;;;;1.98;1.27;;;;;;;;;;5059394;28;20064;-73
2023/01/19 05:40:17;;;;;;;1.67;1.20;;;;;;;;;;5052341;28;20081;-72
2023/01/19 05:42:43;;;;;;;2.75;1.23;;;;;;;;;;5053634;28;20036;-72
2023/01/19 05:45:10;;;;;;;2.15;1.42;;;;;;;;;;5057385;28;20105;-72
2023/01/19 05:47:36;;;;;;;1.75;1.27;;;;;;;;;;5058963;28;20167;-72
2023/01/19 05:50:02;;;;;;;1.95;1.23;;;;;;;;;;5059303;28;20385;-72
2023/01/19 05:52:28;;;;;;;1.45;1.35;;;;;;;;;;5046715;28;20452;-72
2023/01/19 05:54:54;;;;;;;2.03;1.40;;;;;;;;;;5063438;28;20036;-72
2023/01/19 05:57:21;;;;;;;2.33;1.25;;;;;;;;;;5054928;28;20159;-73
2023/01/19 05:59:46;;;;;;;4.35;1.38;;;;;;;;;;5051327;28;20264;-72
2023/01/19 06:02:12;;;;;;;1.75;1.10;;;;;;;;;;5056021;28;20032;-72
2023/01/19 06:04:38;;;;;;;2.33;1.30;;;;;;;;;;5059801;28;20446;-73
2023/01/19 06:07:08;;;;;;;1.85;1.30;;;;;;;;;;5065372;28;20435;-73
2023/01/19 06:09:34;;;;;;;2.67;1.45;;;;;;;;;;5057556;28;20017;-72
2023/01/19 06:12:00;;;;;;;1.67;1.23;;;;;;;;;;5057290;28;20064;-72
2023/01/19 06:14:26;;;;;;;1.98;1.33;;;;;;;;;;5061608;28;20020;-73
2023/01/19 06:16:52;;;;;;;1.48;1.20;;;;;;;;;;5049431;28;20032;-73
2023/01/19 06:19:18;;;;;;;2.63;1.48;;;;;;;;;;5060629;28;20036;-73
2023/01/19 06:21:48;;;;;;;1.60;0.98;;;;;;;;;;5048235;28;20040;-72
2023/01/19 06:24:14;;;;;;;1.65;1.10;;;;;;;;;;5058001;28;20035;-73
2023/01/19 06:26:42;;;;;;;2.35;1.15;;;;;;;;;;5066959;28;20017;-73
2023/01/19 06:29:08;;;;;;;2.00;1.35;;;;;;;;;;5057512;28;20025;-73
2023/01/19 06:31:34;;;;;;;1.05;0.95;;;;;;;;;;5061129;28;20025;-73
2023/01/19 06:34:00;;;;;;;1.73;1.35;;;;;;;;;;5049903;28;20025;-73
2023/01/19 06:36:26;;;;;;;2.45;1.48;;;;;;;;;;5047688;28;20027;-73
2023/01/19 06:38:52;;;;;;;2.53;1.52;;;;;;;;;;5045896;28;20508;-73
2023/01/19 06:41:18;;;;;;;1.77;1.40;;;;;;;;;;5052962;28;20028;-72
2023/01/19 06:43:44;;;;;;;2.22;1.38;;;;;;;;;;5043665;28;20033;-71
2023/01/19 06:46:10;;;;;;;2.67;1.35;;;;;;;;;;5048579;28;20036;-71
2023/01/19 06:48:36;;;;;;;1.13;1.00;;;;;;;;;;5051885;28;20043;-72
2023/01/19 06:51:04;;;;;;;2.63;1.63;;;;;;;;;;5051306;28;20625;-73
2023/01/19 06:53:30;;;;;;;1.40;1.17;;;;;;;;;;5058970;28;20234;-73
2023/01/19 06:56:00;;;;;;;2.53;1.52;;;;;;;;;;5051732;28;20588;-72
2023/01/19 06:58:26;;;;;;;2.30;1.40;;;;;;;;;;5046408;28;20396;-73
2023/01/19 07:00:52;;;;;;;1.67;1.27;;;;;;;;;;5055247;28;20063;-72
2023/01/19 07:03:19;;;;;;;1.60;1.27;;;;;;;;;;5051921;28;20028;-72
2023/01/19 07:05:45;;;;;;;1.25;1.00;;;;;;;;;;5067270;28;20032;-73
2023/01/19 07:08:11;;;;;;;2.80;1.50;;;;;;;;;;5059161;28;20021;-72
2023/01/19 07:10:37;;;;;;;2.15;1.60;;;;;;;;;;5057506;28;20016;-72
2023/01/19 07:13:04;;;;;;;2.58;1.23;;;;;;;;;;5058447;28;20049;-72
2023/01/19 07:15:30;;;;;;;1.38;1.17;;;;;;;;;;5054118;28;20158;-71
2023/01/19 07:18:02;;;;;;;2.00;1.27;;;;;;;;;;5058785;28;20378;-72
2023/01/19 07:20:28;;;;;;;2.30;1.45;;;;;;;;;;5060373;28;20045;-76
2023/01/19 07:22:57;;;;;;;3.25;1.17;;;;;;;;;;5053404;28;20037;-72
2023/01/19 07:25:23;;;;;;;2.90;1.50;;;;;;;;;;5068075;28;20086;-72
2023/01/19 07:27:49;;;;;;;1.52;1.20;;;;;;;;;;5061077;28;20024;-72
2023/01/19 07:30:15;;;;;;;1.55;1.20;;;;;;;;;;5063095;28;20074;-73
2023/01/19 07:32:42;;;;;;;2.83;1.55;;;;;;;;;;5053424;28;20029;-73
2023/01/19 07:35:08;;;;;;;3.63;1.40;;;;;;;;;;5057434;28;20037;-72
2023/01/19 07:37:34;;;;;;;3.15;1.58;;;;;;;;;;5062178;28;20020;-72
2023/01/19 07:40:00;;;;;;;2.33;1.23;;;;;;;;;;5058023;28;20070;-72
2023/01/19 07:42:27;;;;;;;2.20;1.55;;;;;;;;;;5055512;28;20111;-76
2023/01/19 07:44:53;;;;;;;2.75;1.38;;;;;;;;;;5049455;28;20036;-73
2023/01/19 07:47:19;;;;;;;2.08;1.30;;;;;;;;;;5056527;28;20408;-76
2023/01/19 07:49:45;;;;;;;1.63;1.17;;;;;;;;;;5053983;28;20083;-75
2023/01/19 07:52:11;;;;;;;4.75;1.90;;;;;;;;;;5050829;28;20021;-73
2023/01/19 07:54:37;;;;;;;1.73;1.40;;;;;;;;;;5051820;28;20025;-76
2023/01/19 07:57:03;;;;;;;4.15;1.73;;;;;;;;;;5057083;28;20575;-75
2023/01/19 07:59:31;;;;;;;2.10;1.50;;;;;;;;;;5045573;28;20040;-74
2023/01/19 08:01:58;;;;;;;2.28;1.58;;;;;;;;;;5060507;28;20025;-74
2023/01/19 08:04:24;;;;;;;6.20;1.50;;;;;;;;;;5061942;28;20496;-75
2023/01/19 08:06:50;;;;;;;1.33;1.20;;;;;;;;;;5056851;28;20487;-75
2023/01/19 08:09:16;;;;;;;3.88;1.83;;;;;;;;;;5048577;28;20025;-74
2023/01/19 08:11:42;;;;;;;3.78;1.27;;;;;;;;;;5047694;28;20069;-74
2023/01/19 08:14:09;;;;;;;4.55;1.50;;;;;;;;;;5061819;28;20545;-76
2023/01/19 08:16:35;;;;;;;2.28;1.27;;;;;;;;;;5067331;28;20036;-75
2023/01/19 08:19:01;;;;;;;2.20;1.35;;;;;;;;;;5055738;28;20021;-75
2023/01/19 08:21:27;;;;;;;3.17;1.58;;;;;;;;;;5047783;28;20033;-75
2023/01/19 08:23:57;;;;;;;5.63;1.40;;;;;;;;;;5053395;28;20024;-75
2023/01/19 08:26:30;;;;;;;3.05;1.58;;;;;;;;;;5052076;28;20489;-75
2023/01/19 08:28:57;;;;;;;4.57;1.77;;;;;;;;;;5062487;28;20119;-74
2023/01/19 08:31:24;;;;;;;1.83;1.48;;;;;;;;;;5061365;28;20032;-75
2023/01/19 08:33:49;;;;;;;2.78;1.70;;;;;;;;;;5049016;28;20653;-74
2023/01/19 08:36:16;;;;;;;3.75;2.05;;;;;;;;;;5049326;28;20059;-76
2023/01/19 08:38:43;;;;;;;3.55;1.83;;;;;;;;;;5063403;28;20124;-74
2023/01/19 08:41:09;;;;;;;2.38;1.63;;;;;;;;;;5062466;28;20032;-74
2023/01/19 08:43:36;;;;;;;5.03;1.90;;;;;;;;;;5055637;28;20510;-76
2023/01/19 08:46:03;;;;;;;3.58;1.50;;;;;;;;;;5065807;28;20612;-74
2023/01/19 08:48:29;;;;;;;3.50;1.73;;;;;;;;;;5048175;28;20032;-75
2023/01/19 08:50:55;;;;;;;2.70;1.52;;;;;;;;;;5048322;28;20035;-75
2023/01/19 08:53:22;;;;;;;1.40;1.25;;;;;;;;;;5049945;28;20044;-74
2023/01/19 08:55:48;;;;;;;2.05;1.48;;;;;;;;;;5047506;28;20029;-77
2023/01/19 08:58:14;;;;;;;3.80;1.65;;;;;;;;;;5047788;28;20025;-77
2023/01/19 09:00:40;;;;;;;2.63;1.30;;;;;;;;;;5047946;28;20036;-76
2023/01/19 09:03:07;;;;;;;3.35;1.90;;;;;;;;;;5048764;28;20029;-76
2023/01/19 09:05:36;;;;;;;3.15;1.63;;;;;;;;;;5047465;28;20017;-76
2023/01/19 09:08:02;;;;;;;3.95;1.58;;;;;;;;;;5059264;28;20020;-77
2023/01/19 09:10:34;;;;;;;2.42;1.83;;;;;;;;;;5054553;28;20025;-75
2023/01/19 09:13:03;;;;;;;2.33;1.50;;;;;;;;;;5047737;28;20053;-76
2023/01/19 09:15:28;;;;;;;1.80;1.10;;;;;;;;;;5048008;28;20029;-73
2023/01/19 09:17:54;;;;;;;3.55;1.30;;;;;;;;;;5056622;28;20430;-77
2023/01/19 09:20:22;;;;;;;3.10;1.40;;;;;;;;;;5043153;28;20040;-77
2023/01/19 09:22:48;;;;;;;6.70;1.10;;;;;;;;;;5053110;28;20323;-77
2023/01/19 09:25:14;;;;;;;2.30;1.30;;;;;;;;;;5048303;28;20033;-76
2023/01/19 09:27:40;;;;;;;2.00;1.17;;;;;;;;;;5050813;28;20496;-75
2023/01/19 09:30:07;;;;;;;2.80;1.55;;;;;;;;;;5054382;28;20036;-76
2023/01/19 09:32:33;;;;;;;2.15;1.20;;;;;;;;;;5052221;28;20105;-75
2023/01/19 09:34:59;;;;;;;1.63;1.10;;;;;;;;;;5048994;28;20040;-76
2023/01/19 09:37:25;;;;;;;1.90;1.00;;;;;;;;;;5070397;28;20028;-76
2023/01/19 09:39:51;;;;;;;2.42;1.15;;;;;;;;;;5060640;28;20028;-76
2023/01/19 09:42:28;;;;;;;1.38;0.98;;;;;;;;;;5057890;28;20096;-76
2023/01/19 09:44:54;;;;;;;1.88;1.30;;;;;;;;;;5054484;28;20055;-76
2023/01/19 09:47:22;;;;;;;2.08;1.30;;;;;;;;;;5047510;28;20025;-76
2023/01/19 09:49:57;;;;;;;3.30;1.10;;;;;;;;;;5054415;28;20842;-76
2023/01/19 09:52:23;;;;;;;1.20;1.10;;;;;;;;;;5048572;28;20381;-76
2023/01/19 09:54:52;;;;;;;1.77;1.17;;;;;;;;;;5050132;28;20035;-76
2023/01/19 09:57:18;;;;;;;1.92;1.20;;;;;;;;;;5048944;28;20120;-75
2023/01/19 09:59:46;;;;;;;3.85;1.45;;;;;;;;;;5046847;28;20021;-78
2023/01/19 10:02:32;;;;;;;1.85;1.20;;;;;;;;;;5046839;28;20082;-76
2023/01/19 10:05:00;;;;;;;2.65;1.00;;;;;;;;;;5046863;28;20016;-76
2023/01/19 10:07:34;;;;;;;1.48;1.20;;;;;;;;;;5073693;28;20032;-76
2023/01/19 10:10:18;;;;;;;1.33;1.00;;;;;;;;;;5059997;28;20072;-76
2023/01/19 10:12:50;;;;;;;2.80;1.10;;;;;;;;;;5047581;28;20060;-76
2023/01/19 10:15:16;;;;;;;2.45;1.40;;;;;;;;;;5057932;28;20046;-76
2023/01/19 10:17:56;;;;;;;2.40;1.10;;;;;;;;;;5059475;28;20033;-76
2023/01/19 10:20:32;;;;;;;2.45;1.17;;;;;;;;;;5060069;28;20025;-76
2023/01/19 10:22:58;;;;;;;2.08;1.30;;;;;;;;;;5060363;28;20385;-77
2023/01/19 10:25:25;;;;;;;1.00;0.90;;;;;;;;;;5050393;28;20481;-77
2023/01/19 10:27:51;;;;;;;2.10;1.30;;;;;;;;;;5047830;28;20028;-76
2023/01/19 10:30:24;;;;;;;1.95;1.05;;;;;;;;;;5046813;28;20024;-76
2023/01/19 10:32:51;;;;;;;3.00;1.38;;;;;;;;;;5047768;28;20576;-76
2023/01/19 10:35:23;;;;;;;2.15;1.05;;;;;;;;;;5050275;28;20112;-76
2023/01/19 10:37:49;;;;;;;1.23;0.88;;;;;;;;;;5061808;28;20575;-75
2023/01/19 10:40:24;;;;;;;1.98;0.95;;;;;;;;;;5056373;28;20477;-76
2023/01/19 10:42:50;;;;;;;3.63;1.33;;;;;;;;;;5055302;28;20074;-76
2023/01/19 10:45:20;;;;;;;1.98;1.00;;;;;;;;;;5071098;28;20024;-75
2023/01/19 10:47:46;;;;;;;1.40;1.10;;;;;;;;;;5054232;28;20025;-76
2023/01/19 10:50:22;;;;;;;2.85;1.40;;;;;;;;;;5058986;28;20021;-75
2023/01/19 10:52:52;;;;;;;1.10;0.98;;;;;;;;;;5047409;28;20023;-75
2023/01/19 10:55:32;;;;;;;1.50;1.08;;;;;;;;;;5051740;28;20045;-76
2023/01/19 10:57:58;;;;;;;1.80;1.05;;;;;;;;;;5050511;28;20067;-76
2023/01/19 11:00:29;;;;;;;2.10;1.17;;;;;;;;;;5050553;28;20045;-76
2023/01/19 11:02:55;;;;;;;2.25;1.00;;;;;;;;;;5042799;28;20037;-76
2023/01/19 11:05:23;;;;;;;1.92;1.42;;;;;;;;;;5050930;28;20619;-76
2023/01/19 11:07:49;;;;;;;1.95;1.05;;;;;;;;;;5059996;28;20036;-76
2023/01/19 11:10:14;;;;;;;3.88;0.95;;;;;;;;;;5054931;28;20044;-76
2023/01/19 11:12:55;;;;;;;1.85;1.10;;;;;;;;;;5048678;28;20458;-76
2023/01/19 11:15:27;;;;;;;1.83;1.10;;;;;;;;;;5051207;28;20032;-76
2023/01/19 11:17:53;;;;;;;2.53;1.20;;;;;;;;;;5048699;28;20399;-76
2023/01/19 11:20:21;;;;;;;2.88;1.10;;;;;;;;;;5052867;28;20176;-76
2023/01/19 11:22:48;;;;;;;5.38;1.08;;;;;;;;;;5062354;28;20039;-76
2023/01/19 11:25:29;;;;;;;2.58;1.20;;;;;;;;;;5047404;28;20048;-77
2023/01/19 11:27:55;;;;;;;1.58;1.08;;;;;;;;;;5049835;28;20036;-76
2023/01/19 11:30:23;;;;;;;1.58;1.10;;;;;;;;;;5066638;28;20257;-76
2023/01/19 11:32:49;;;;;;;2.28;1.00;;;;;;;;;;5047837;28;20032;-75
2023/01/19 11:35:50;;;;;;;1.30;0.98;;;;;;;;;;5052026;28;20032;-76
2023/01/19 11:38:18;;;;;;;2.83;1.90;;;;;;;;;;5023995;28;20040;-75
2023/01/19 11:40:52;;;;;;;1.33;1.05;;;;;;;;;;5053219;28;20035;-76
2023/01/19 11:43:18;;;;;;;2.00;1.25;;;;;;;;;;5064673;28;20488;-75
2023/01/19 11:45:45;;;;;;;2.38;1.05;;;;;;;;;;5049026;28;20082;-76
2023/01/19 11:48:16;;;;;;;2.28;1.17;;;;;;;;;;5048964;28;20104;-76
2023/01/19 11:50:42;;;;;;;;;;;;;;;;;;5053262;28;20020;-76
2023/01/19 11:53:14;;;;;;;1.08;0.85;;;;;;;;;;5048663;28;20298;-76
2023/01/19 11:55:45;;;;;;;1.77;1.27;;;;;;;;;;5050723;28;20021;-76
2023/01/19 11:58:18;;;;;;;2.53;0.80;;;;;;;;;;5048988;28;20036;-75
2023/01/19 12:00:46;;;;;;;1.45;0.95;;;;;;;;;;5061525;28;20029;-76
2023/01/19 12:03:32;;;;;;;2.10;1.35;;;;;;;;;;5053427;28;20020;-76
2023/01/19 12:06:03;;;;;;;2.05;0.85;;;;;;;;;;5043989;28;20041;-76
2023/01/19 12:08:32;;;;;;;1.98;1.13;;;;;;;;;;5050739;28;20099;-75
2023/01/19 12:10:59;;;;;;;2.58;0.90;;;;;;;;;;5055047;28;20040;-76
2023/01/19 12:13:26;;;;;;;2.20;1.23;;;;;;;;;;5052384;28;21024;-76
2023/01/19 12:15:57;;;;;;;1.83;1.17;;;;;;;;;;5060082;28;20029;-76
2023/01/19 12:18:29;;;;;;;1.73;1.20;;;;;;;;;;5048414;28;20489;-76
2023/01/19 12:20:57;;;;;;;1.95;1.17;;;;;;;;;;5049578;28;20056;-76
2023/01/19 12:23:43;;;;;;;1.92;1.08;;;;;;;;;;5059287;28;20035;-76
2023/01/19 12:26:15;;;;;;;4.60;1.50;;;;;;;;;;5056525;28;20032;-76
2023/01/19 12:28:44;;;;;;;1.98;1.23;;;;;;;;;;5053944;28;20050;-76
2023/01/19 12:31:13;;;;;;;1.20;1.08;;;;;;;;;;5055432;28;20016;-77
2023/01/19 12:33:40;;;;;;;1.80;1.00;;;;;;;;;;5048557;28;20089;-76
2023/01/19 12:36:10;;;;;;;3.92;1.10;;;;;;;;;;5048423;28;20032;-76
2023/01/19 12:38:40;;;;;;;1.98;1.10;;;;;;;;;;5047221;28;20033;-73
2023/01/19 12:41:24;;;;;;;2.22;1.10;;;;;;;;;;5052937;28;20443;-72
2023/01/19 12:44:09;;;;;;;1.98;0.95;;;;;;;;;;5049332;28;20047;-73
2023/01/19 12:46:36;;;;;;;2.15;1.48;;;;;;;;;;5050246;28;20493;-73
2023/01/19 12:49:09;;;;;;;2.10;1.08;;;;;;;;;;5062690;28;20579;-73
2023/01/19 12:51:35;;;;;;;2.60;1.00;;;;;;;;;;5062278;28;20119;-72
2023/01/19 12:54:04;;;;;;;1.98;1.30;;;;;;;;;;5047745;28;20135;-73
2023/01/19 12:56:31;;;;;;;1.10;1.00;;;;;;;;;;5050050;28;20395;-72
2023/01/19 12:58:57;;;;;;;1.40;0.85;;;;;;;;;;5064788;28;20036;-71
2023/01/19 13:01:25;;;;;;;1.00;0.90;;;;;;;;;;5067788;28;20384;-72
2023/01/19 13:03:57;;;;;;;1.25;0.90;;;;;;;;;;5062376;28;20028;-72
2023/01/19 13:06:43;;;;;;;1.00;0.90;;;;;;;;;;5067823;28;20074;-72
2023/01/19 13:09:28;;;;;;;1.27;0.98;;;;;;;;;;5052518;28;20089;-72
2023/01/19 13:12:10;;;;;;;1.20;0.95;;;;;;;;;;5067042;28;20079;-73
2023/01/19 13:14:37;;;;;;;1.10;1.00;;;;;;;;;;5056685;28;20025;-72
2023/01/19 13:17:04;;;;;;;2.65;1.17;;;;;;;;;;5067374;28;20036;-73
2023/01/19 13:19:34;;;;;;;1.45;0.90;;;;;;;;;;5067318;28;20111;-73
2023/01/19 13:22:20;;;;;;;1.67;1.17;;;;;;;;;;5067023;28;20035;-72
2023/01/19 13:25:04;;;;;;;1.42;1.13;;;;;;;;;;5054359;28;20040;-73
2023/01/19 13:27:30;;;;;;;2.30;1.52;;;;;;;;;;5044643;28;20071;-73
2023/01/19 13:29:56;;;;;;;1.35;0.93;;;;;;;;;;5049779;28;20713;-72
2023/01/19 13:32:24;;;;;;;2.15;1.02;;;;;;;;;;5067222;28;20392;-72
2023/01/19 13:35:00;;;;;;;1.73;1.05;;;;;;;;;;5067110;28;20032;-73
2023/01/19 13:37:36;;;;;;;1.35;1.02;;;;;;;;;;5066959;28;20439;-73
2023/01/19 13:40:02;;;;;;;1.52;1.00;;;;;;;;;;5051086;28;20024;-72
2023/01/19 13:42:30;;;;;;;2.33;1.00;;;;;;;;;;5044995;28;20052;-72
2023/01/19 13:44:59;;;;;;;1.17;0.95;;;;;;;;;;5049216;28;20435;-73
2023/01/19 13:47:37;;;;;;;2.03;0.90;;;;;;;;;;5047994;28;20089;-72
2023/01/19 13:50:03;;;;;;;1.23;1.10;;;;;;;;;;5046889;28;22089;-73
2023/01/19 13:52:29;;;;;;;2.08;1.38;;;;;;;;;;5049515;28;20041;-76
2023/01/19 13:55:02;;;;;;;1.50;1.23;;;;;;;;;;5042113;28;20016;-75
2023/01/19 13:57:33;;;;;;;1.17;0.98;;;;;;;;;;5045391;28;20523;-76
2023/01/19 14:00:01;;;;;;;1.30;1.13;;;;;;;;;;5058648;28;20042;-76
2023/01/19 14:02:27;;;;;;;1.70;1.00;;;;;;;;;;5046945;28;20052;-76
2023/01/19 14:04:56;;;;;;;0.77;0.73;;;;;;;;;;5041479;28;20095;-76
2023/01/19 14:07:25;;;;;;;3.33;1.10;;;;;;;;;;5048513;28;20115;-76
2023/01/19 14:10:04;;;;;;;1.48;0.98;;;;;;;;;;5044010;28;20520;-77
2023/01/19 14:12:33;;;;;;;2.10;1.20;;;;;;;;;;5049566;28;20491;-75
2023/01/19 14:15:00;;;;;;;3.85;1.00;;;;;;;;;;5047655;28;20025;-76
2023/01/19 14:17:27;;;;;;;2.08;1.02;;;;;;;;;;5046070;28;20159;-76
2023/01/19 14:19:57;;;;;;;1.38;0.90;;;;;;;;;;5052235;28;20077;-76
2023/01/19 14:22:42;;;;;;;1.75;1.00;;;;;;;;;;5051079;28;20366;-76
2023/01/19 14:25:27;;;;;;;1.02;0.93;;;;;;;;;;5043965;28;20040;-76
2023/01/19 14:28:12;;;;;;;1.67;1.17;;;;;;;;;;5050017;28;20036;-76
2023/01/19 14:30:38;;;;;;;1.02;0.93;;;;;;;;;;5048259;28;20086;-76
2023/01/19 14:33:04;;;;;;;3.42;1.35;;;;;;;;;;5052058;28;20398;-75
2023/01/19 14:35:30;;;;;;;1.15;1.05;;;;;;;;;;5054765;28;20544;-75
2023/01/19 14:37:56;;;;;;;2.13;1.00;;;;;;;;;;5049033;28;20373;-75
2023/01/19 14:40:23;;;;;;;1.00;0.90;;;;;;;;;;5046380;28;20107;-76
2023/01/19 14:42:58;;;;;;;1.50;1.27;;;;;;;;;;5053555;28;20060;-72
2023/01/19 14:45:35;;;;;;;1.35;0.95;;;;;;;;;;5046419;28;20577;-72
2023/01/19 14:48:06;;;;;;;2.28;1.30;;;;;;;;;;5046181;28;20025;-72
2023/01/19 14:50:34;;;;;;;2.03;1.40;;;;;;;;;;5044235;28;20584;-73
2023/01/19 14:53:01;;;;;;;2.35;1.10;;;;;;;;;;5048139;28;20043;-73
2023/01/19 14:55:45;;;;;;;1.52;1.02;;;;;;;;;;5046247;28;20025;-73
2023/01/19 14:58:12;;;;;;;1.25;1.15;;;;;;;;;;5042713;28;20471;-74
2023/01/19 15:00:38;;;;;;;1.30;1.20;;;;;;;;;;5045827;28;20024;-75